sensor_id;sensor_type;location;lat;lon;timestamp;pressure;altitude;pressure_sealevel;temperature;humidity
72802;BME280;61891;55.818;37.084;2022-09-12T00:01:56;99738.31;;;11.45;55.94
72802;BME280;61891;55.818;37.084;2022-09-12T00:04:22;99731.34;;;11.44;55.62
72802;BME280;61891;55.818;37.084;2022-09-12T00:06:48;99724.84;;;11.30;55.49
72802;BME280;61891;55.818;37.084;2022-09-12T00:09:14;99736.81;;;11.34;54.73
72802;BME280;61891;55.818;37.084;2022-09-12T00:11:41;99731.63;;;11.24;56.29
72802;BME280;61891;55.818;37.084;2022-09-12T00:14:08;99727.66;;;11.20;56.22
72802;BME280;61891;55.818;37.084;2022-09-12T00:16:36;99728.16;;;11.24;56.59
72802;BME280;61891;55.818;37.084;2022-09-12T00:19:03;99712.56;;;11.21;57.29
72802;BME280;61891;55.818;37.084;2022-09-12T00:21:31;99689.31;;;11.15;56.57
72802;BME280;61891;55.818;37.084;2022-09-12T00:23:57;99717.72;;;11.30;57.27
72802;BME280;61891;55.818;37.084;2022-09-12T00:26:23;99697.31;;;11.23;57.21
72802;BME280;61891;55.818;37.084;2022-09-12T00:28:50;99701.28;;;11.27;57.97
72802;BME280;61891;55.818;37.084;2022-09-12T00:31:19;99699.97;;;11.31;57.96
72802;BME280;61891;55.818;37.084;2022-09-12T00:33:45;99711.59;;;11.38;57.76
72802;BME280;61891;55.818;37.084;2022-09-12T00:36:17;99714.41;;;11.37;57.51
72802;BME280;61891;55.818;37.084;2022-09-12T00:38:44;99714.09;;;11.40;57.14
72802;BME280;61891;55.818;37.084;2022-09-12T00:41:20;99709.44;;;11.42;58.65
72802;BME280;61891;55.818;37.084;2022-09-12T00:46:43;99695.84;;;11.37;58.65
72802;BME280;61891;55.818;37.084;2022-09-12T00:52:00;99695.19;;;11.43;57.33
72802;BME280;61891;55.818;37.084;2022-09-12T00:54:32;99672.59;;;11.30;58.90
72802;BME280;61891;55.818;37.084;2022-09-12T00:57:02;99634.59;;;11.06;58.85
72802;BME280;61891;55.818;37.084;2022-09-12T00:59:40;99672.78;;;11.29;59.25
72802;BME280;61891;55.818;37.084;2022-09-12T01:02:08;99693.19;;;11.45;59.45
72802;BME280;61891;55.818;37.084;2022-09-12T01:04:36;99678.25;;;11.36;59.52
72802;BME280;61891;55.818;37.084;2022-09-12T01:07:04;99641.25;;;11.18;59.65
72802;BME280;61891;55.818;37.084;2022-09-12T01:09:31;99660.50;;;11.28;59.54
72802;BME280;61891;55.818;37.084;2022-09-12T01:11:56;99682.56;;;11.45;58.79
72802;BME280;61891;55.818;37.084;2022-09-12T01:14:23;99682.56;;;11.45;58.79
72802;BME280;61891;55.818;37.084;2022-09-12T01:16:49;99679.25;;;11.43;59.12
72802;BME280;61891;55.818;37.084;2022-09-12T01:24:51;99680.75;;;11.45;58.41
72802;BME280;61891;55.818;37.084;2022-09-12T01:47:09;99664.81;;;11.37;60.03
72802;BME280;61891;55.818;37.084;2022-09-12T01:52:22;99647.38;;;11.26;60.30
72802;BME280;61891;55.818;37.084;2022-09-12T01:54:54;99651.22;;;11.32;60.59
72802;BME280;61891;55.818;37.084;2022-09-12T01:57:30;99631.97;;;11.22;60.51
72802;BME280;61891;55.818;37.084;2022-09-12T02:00:03;99646.22;;;11.29;60.70
72802;BME280;61891;55.818;37.084;2022-09-12T02:03:19;99659.19;;;11.32;60.77
72802;BME280;61891;55.818;37.084;2022-09-12T02:05:56;99607.06;;;10.98;60.85
72802;BME280;61891;55.818;37.084;2022-09-12T02:08:29;99655.03;;;11.29;60.42
72802;BME280;61891;55.818;37.084;2022-09-12T02:11:05;99660.50;;;11.28;60.61
72802;BME280;61891;55.818;37.084;2022-09-12T02:14:20;99657.50;;;11.23;61.04
72802;BME280;61891;55.818;37.084;2022-09-12T02:16:39;99651.38;;;11.22;60.65
72802;BME280;61891;55.818;37.084;2022-09-12T02:19:16;99641.91;;;11.12;61.17
72802;BME280;61891;55.818;37.084;2022-09-12T02:21:50;99652.03;;;11.16;60.83
72802;BME280;61891;55.818;37.084;2022-09-12T02:24:16;99644.22;;;11.15;60.92
72802;BME280;61891;55.818;37.084;2022-09-12T02:27:02;99650.53;;;11.14;61.49
72802;BME280;61891;55.818;37.084;2022-09-12T02:29:29;99639.91;;;11.14;60.98
72802;BME280;61891;55.818;37.084;2022-09-12T02:32:15;99640.91;;;11.13;61.20
72802;BME280;61891;55.818;37.084;2022-09-12T02:34:51;99617.69;;;11.07;60.67
72802;BME280;61891;55.818;37.084;2022-09-12T02:37:32;99630.78;;;11.16;61.55
72802;BME280;61891;55.818;37.084;2022-09-12T02:40:02;99641.25;;;11.18;61.19
72802;BME280;61891;55.818;37.084;2022-09-12T02:42:28;99642.06;;;11.18;60.67
72802;BME280;61891;55.818;37.084;2022-09-12T02:44:54;99641.91;;;11.20;61.36
72802;BME280;61891;55.818;37.084;2022-09-12T02:47:28;99619.00;;;11.03;61.22
72802;BME280;61891;55.818;37.084;2022-09-12T02:49:57;99641.56;;;11.15;61.08
72802;BME280;61891;55.818;37.084;2022-09-12T02:52:24;99627.97;;;11.10;61.07
72802;BME280;61891;55.818;37.084;2022-09-12T02:54:50;99649.22;;;11.18;61.00
72802;BME280;61891;55.818;37.084;2022-09-12T02:57:18;99559.28;;;10.66;60.60
72802;BME280;61891;55.818;37.084;2022-09-12T02:59:45;99649.72;;;11.21;61.04
72802;BME280;61891;55.818;37.084;2022-09-12T03:02:17;99652.03;;;11.24;61.06
72802;BME280;61891;55.818;37.084;2022-09-12T03:05:17;99650.22;;;11.25;60.52
72802;BME280;61891;55.818;37.084;2022-09-12T03:10:31;99639.59;;;11.17;59.17
72802;BME280;61891;55.818;37.084;2022-09-12T03:13:24;99651.69;;;11.19;60.00
72802;BME280;61891;55.818;37.084;2022-09-12T03:16:13;99653.69;;;11.17;60.63
72802;BME280;61891;55.818;37.084;2022-09-12T03:19:20;99596.59;;;10.81;59.27
72802;BME280;61891;55.818;37.084;2022-09-12T03:22:01;99648.03;;;11.12;61.10
72802;BME280;61891;55.818;37.084;2022-09-12T03:27:27;99647.53;;;11.17;61.04
72802;BME280;61891;55.818;37.084;2022-09-12T03:29:54;99652.38;;;11.21;59.96
72802;BME280;61891;55.818;37.084;2022-09-12T03:32:48;99655.19;;;11.20;60.88
72802;BME280;61891;55.818;37.084;2022-09-12T03:35:16;99640.91;;;11.13;60.91
72802;BME280;61891;55.818;37.084;2022-09-12T03:37:42;99654.03;;;11.22;61.07
72802;BME280;61891;55.818;37.084;2022-09-12T03:40:10;99644.06;;;11.16;60.98
72802;BME280;61891;55.818;37.084;2022-09-12T03:42:37;99641.56;;;11.15;60.11
72802;BME280;61891;55.818;37.084;2022-09-12T03:45:04;99633.94;;;11.12;59.90
72802;BME280;61891;55.818;37.084;2022-09-12T03:47:30;99652.03;;;11.24;60.67
72802;BME280;61891;55.818;37.084;2022-09-12T03:49:56;99651.88;;;11.26;60.94
72802;BME280;61891;55.818;37.084;2022-09-12T03:52:22;99649.88;;;11.28;61.03
72802;BME280;61891;55.818;37.084;2022-09-12T03:54:47;99649.38;;;11.24;61.18
72802;BME280;61891;55.818;37.084;2022-09-12T03:57:13;99645.41;;;11.28;60.87
72802;BME280;61891;55.818;37.084;2022-09-12T03:59:39;99642.41;;;11.23;61.00
72802;BME280;61891;55.818;37.084;2022-09-12T04:02:05;99640.94;;;11.29;60.11
72802;BME280;61891;55.818;37.084;2022-09-12T04:04:31;99636.94;;;11.17;59.46
72802;BME280;61891;55.818;37.084;2022-09-12T04:06:56;99632.28;;;11.19;60.87
72802;BME280;61891;55.818;37.084;2022-09-12T04:09:22;99643.91;;;11.26;60.78
72802;BME280;61891;55.818;37.084;2022-09-12T04:11:48;99646.06;;;11.30;60.87
72802;BME280;61891;55.818;37.084;2022-09-12T04:14:14;99645.56;;;11.27;59.97
72802;BME280;61891;55.818;37.084;2022-09-12T04:16:39;99651.53;;;11.29;61.32
72802;BME280;61891;55.818;37.084;2022-09-12T04:19:05;99644.91;;;11.25;60.41
72802;BME280;61891;55.818;37.084;2022-09-12T04:21:31;99639.59;;;11.33;61.26
72802;BME280;61891;55.818;37.084;2022-09-12T04:23:57;99644.25;;;11.39;60.81
72802;BME280;61891;55.818;37.084;2022-09-12T04:26:22;99640.59;;;11.40;61.69
72802;BME280;61891;55.818;37.084;2022-09-12T04:28:52;99640.94;;;11.45;61.71
72802;BME280;61891;55.818;37.084;2022-09-12T04:31:19;99638.94;;;11.47;61.43
72802;BME280;61891;55.818;37.084;2022-09-12T04:33:55;99595.47;;;11.24;61.79
72802;BME280;61891;55.818;37.084;2022-09-12T04:36:21;99629.31;;;11.54;61.71
72802;BME280;61891;55.818;37.084;2022-09-12T04:38:47;99639.59;;;11.57;62.09
72802;BME280;61891;55.818;37.084;2022-09-12T04:43:50;99641.44;;;11.65;62.32
72802;BME280;61891;55.818;37.084;2022-09-12T04:46:16;99632.13;;;11.61;61.23
72802;BME280;61891;55.818;37.084;2022-09-12T04:48:46;99635.94;;;11.67;62.20
72802;BME280;61891;55.818;37.084;2022-09-12T04:51:17;99644.09;;;11.73;62.51
72802;BME280;61891;55.818;37.084;2022-09-12T04:53:50;99651.41;;;11.79;61.75
72802;BME280;61891;55.818;37.084;2022-09-12T04:56:18;99658.22;;;11.82;60.96
72802;BME280;61891;55.818;37.084;2022-09-12T04:58:44;99645.91;;;11.73;60.65
72802;BME280;61891;55.818;37.084;2022-09-12T05:01:12;99651.56;;;11.70;60.54
72802;BME280;61891;55.818;37.084;2022-09-12T05:03:39;99640.59;;;11.65;60.91
72802;BME280;61891;55.818;37.084;2022-09-12T05:06:06;99641.44;;;11.65;60.98
72802;BME280;61891;55.818;37.084;2022-09-12T05:08:33;99652.53;;;11.77;60.69
72802;BME280;61891;55.818;37.084;2022-09-12T05:11:08;99610.25;;;11.59;60.93
72802;BME280;61891;55.818;37.084;2022-09-12T05:13:38;99630.13;;;11.71;60.20
72802;BME280;61891;55.818;37.084;2022-09-12T05:16:05;99639.44;;;11.83;61.16
72802;BME280;61891;55.818;37.084;2022-09-12T05:18:32;99643.25;;;11.89;61.06
72802;BME280;61891;55.818;37.084;2022-09-12T05:20:59;99643.94;;;11.83;60.51
72802;BME280;61891;55.818;37.084;2022-09-12T05:23:26;99638.28;;;11.86;60.38
72802;BME280;61891;55.818;37.084;2022-09-12T05:25:53;99637.28;;;11.87;60.69
72802;BME280;61891;55.818;37.084;2022-09-12T05:28:20;99622.84;;;11.81;61.29
72802;BME280;61891;55.818;37.084;2022-09-12T05:30:47;99635.44;;;11.96;62.16
72802;BME280;61891;55.818;37.084;2022-09-12T05:33:13;99640.44;;;11.99;61.05
72802;BME280;61891;55.818;37.084;2022-09-12T05:35:40;99612.22;;;11.89;60.70
72802;BME280;61891;55.818;37.084;2022-09-12T05:38:06;99633.94;;;12.09;61.85
72802;BME280;61891;55.818;37.084;2022-09-12T05:40:33;99632.94;;;12.10;61.04
72802;BME280;61891;55.818;37.084;2022-09-12T05:43:00;99628.75;;;12.16;61.66
72802;BME280;61891;55.818;37.084;2022-09-12T05:45:26;99631.59;;;12.14;61.82
72802;BME280;61891;55.818;37.084;2022-09-12T05:47:52;99631.06;;;12.19;61.26
72802;BME280;61891;55.818;37.084;2022-09-12T05:50:24;99614.63;;;12.23;60.95
72802;BME280;61891;55.818;37.084;2022-09-12T05:52:50;99629.53;;;12.33;59.93
72802;BME280;61891;55.818;37.084;2022-09-12T05:55:16;99611.44;;;12.28;59.87
72802;BME280;61891;55.818;37.084;2022-09-12T05:57:45;99638.13;;;12.43;60.05
72802;BME280;61891;55.818;37.084;2022-09-12T06:00:12;99579.09;;;12.16;60.22
72802;BME280;61891;55.818;37.084;2022-09-12T06:02:39;99635.28;;;12.52;60.53
72802;BME280;61891;55.818;37.084;2022-09-12T06:05:05;99628.47;;;12.50;60.29
72802;BME280;61891;55.818;37.084;2022-09-12T06:07:31;99631.09;;;12.58;59.41
72802;BME280;61891;55.818;37.084;2022-09-12T06:09:57;99625.78;;;12.58;60.55
72802;BME280;61891;55.818;37.084;2022-09-12T06:12:24;99614.50;;;12.56;59.97
72802;BME280;61891;55.818;37.084;2022-09-12T06:14:52;99631.72;;;12.68;59.53
72802;BME280;61891;55.818;37.084;2022-09-12T06:17:18;99618.09;;;12.63;59.32
72802;BME280;61891;55.818;37.084;2022-09-12T06:19:44;99621.25;;;12.67;59.47
72802;BME280;61891;55.818;37.084;2022-09-12T07:17:42;99630.03;;;12.75;59.41
72802;BME280;61891;55.818;37.084;2022-09-12T07:20:07;99624.31;;;12.86;61.37
72802;BME280;61891;55.818;37.084;2022-09-12T07:22:33;99626.78;;;13.19;61.70
72802;BME280;61891;55.818;37.084;2022-09-12T07:24:59;99604.59;;;13.27;61.89
72802;BME280;61891;55.818;37.084;2022-09-12T07:27:25;99593.19;;;13.41;61.06
72802;BME280;61891;55.818;37.084;2022-09-12T07:39:15;99633.41;;;13.46;58.42
72802;BME280;61891;55.818;37.084;2022-09-12T07:49:17;99633.38;;;13.69;57.97
72802;BME280;61891;55.818;37.084;2022-09-12T07:55:55;99629.91;;;13.83;58.58
72802;BME280;61891;55.818;37.084;2022-09-12T07:58:22;99599.88;;;13.74;59.14
72802;BME280;61891;55.818;37.084;2022-09-12T08:00:48;99630.13;;;14.11;58.86
72802;BME280;61891;55.818;37.084;2022-09-12T08:03:15;99589.78;;;13.99;58.47
72802;BME280;61891;55.818;37.084;2022-09-12T08:05:49;99629.88;;;14.35;58.30
72802;BME280;61891;55.818;37.084;2022-09-12T08:08:15;99638.97;;;14.41;56.96
72802;BME280;61891;55.818;37.084;2022-09-12T08:10:41;99634.47;;;14.41;57.05
72802;BME280;61891;55.818;37.084;2022-09-12T08:13:10;99611.84;;;14.37;56.62
72802;BME280;61891;55.818;37.084;2022-09-12T08:15:36;99586.19;;;14.22;56.23
72802;BME280;61891;55.818;37.084;2022-09-12T08:18:02;99611.84;;;14.37;56.27
72802;BME280;61891;55.818;37.084;2022-09-12T08:20:27;99593.72;;;14.33;55.96
72802;BME280;61891;55.818;37.084;2022-09-12T08:22:57;99631.97;;;14.69;55.76
72802;BME280;61891;55.818;37.084;2022-09-12T08:25:22;99641.00;;;14.68;55.61
72802;BME280;61891;55.818;37.084;2022-09-12T08:27:48;99629.34;;;14.55;55.21
72802;BME280;61891;55.818;37.084;2022-09-12T08:30:14;99638.25;;;14.47;54.95
72802;BME280;61891;55.818;37.084;2022-09-12T08:32:39;99642.59;;;14.48;54.84
72802;BME280;61891;55.818;37.084;2022-09-12T08:35:05;99651.22;;;14.50;54.85
72802;BME280;61891;55.818;37.084;2022-09-12T08:37:32;99659.97;;;14.59;54.96
72802;BME280;61891;55.818;37.084;2022-09-12T08:39:58;99650.84;;;14.53;54.67
72802;BME280;61891;55.818;37.084;2022-09-12T08:42:40;99653.44;;;14.61;54.72
72802;BME280;61891;55.818;37.084;2022-09-12T08:45:20;99654.91;;;14.64;54.49
72802;BME280;61891;55.818;37.084;2022-09-12T08:47:51;99653.63;;;14.60;54.47
72802;BME280;61891;55.818;37.084;2022-09-12T08:50:19;99640.19;;;14.53;54.31
72802;BME280;61891;55.818;37.084;2022-09-12T08:53:03;99657.38;;;14.65;54.14
72802;BME280;61891;55.818;37.084;2022-09-12T08:58:22;99650.56;;;14.77;54.12
72802;BME280;61891;55.818;37.084;2022-09-12T09:01:17;99656.41;;;14.88;53.74
72802;BME280;61891;55.818;37.084;2022-09-12T09:09:17;99641.38;;;15.01;53.22
72802;BME280;61891;55.818;37.084;2022-09-12T09:14:46;99650.56;;;15.13;52.76
72802;BME280;61891;55.818;37.084;2022-09-12T09:17:40;99662.88;;;15.14;52.91
72802;BME280;61891;55.818;37.084;2022-09-12T09:20:21;99655.50;;;15.16;52.53
72802;BME280;61891;55.818;37.084;2022-09-12T09:22:55;99650.63;;;15.20;52.81
72802;BME280;61891;55.818;37.084;2022-09-12T09:28:38;99640.25;;;15.10;52.15
72802;BME280;61891;55.818;37.084;2022-09-12T09:31:14;99640.19;;;15.04;52.08
72802;BME280;61891;55.818;37.084;2022-09-12T09:33:41;99640.19;;;15.04;52.05
72802;BME280;61891;55.818;37.084;2022-09-12T09:36:19;99644.00;;;15.16;52.43
72802;BME280;61891;55.818;37.084;2022-09-12T09:39:05;99616.72;;;14.99;52.00
72802;BME280;61891;55.818;37.084;2022-09-12T09:44:11;99628.94;;;15.08;52.18
72802;BME280;61891;55.818;37.084;2022-09-12T09:46:37;99641.25;;;15.09;51.98
72802;BME280;61891;55.818;37.084;2022-09-12T09:49:08;99643.56;;;15.12;51.97
72802;BME280;61891;55.818;37.084;2022-09-12T09:51:38;99622.69;;;15.01;51.87
72802;BME280;61891;55.818;37.084;2022-09-12T09:54:16;99646.09;;;15.21;51.88
72802;BME280;61891;55.818;37.084;2022-09-12T09:56:43;99626.22;;;15.23;51.89
72802;BME280;61891;55.818;37.084;2022-09-12T09:59:10;99632.69;;;15.35;51.72
72802;BME280;61891;55.818;37.084;2022-09-12T10:01:45;99634.97;;;15.38;51.37
72802;BME280;61891;55.818;37.084;2022-09-12T10:04:24;99636.31;;;15.49;51.11
72802;BME280;61891;55.818;37.084;2022-09-12T10:07:01;99489.94;;;14.67;51.37
72802;BME280;61891;55.818;37.084;2022-09-12T10:09:32;99635.09;;;15.66;51.21
72802;BME280;61891;55.818;37.084;2022-09-12T10:12:00;99592.34;;;15.52;51.04
72802;BME280;61891;55.818;37.084;2022-09-12T10:14:36;99632.19;;;15.89;50.65
72802;BME280;61891;55.818;37.084;2022-09-12T10:17:27;99631.84;;;15.99;50.23
72802;BME280;61891;55.818;37.084;2022-09-12T10:19:54;99632.38;;;16.16;49.77
72802;BME280;61891;55.818;37.084;2022-09-12T10:22:23;99625.06;;;16.31;49.58
72802;BME280;61891;55.818;37.084;2022-09-12T10:25:13;99624.44;;;16.70;49.19
72802;BME280;61891;55.818;37.084;2022-09-12T10:27:41;99631.38;;;17.12;49.10
72802;BME280;61891;55.818;37.084;2022-09-12T10:32:44;99583.00;;;17.60;47.28
72802;BME280;61891;55.818;37.084;2022-09-12T10:35:19;99624.78;;;18.33;46.83
72802;BME280;61891;55.818;37.084;2022-09-12T10:37:53;99573.50;;;18.61;46.40
72802;BME280;61891;55.818;37.084;2022-09-12T10:40:31;99582.66;;;19.23;45.50
72802;BME280;61891;55.818;37.084;2022-09-12T10:42:59;99625.44;;;20.06;44.58
72802;BME280;61891;55.818;37.084;2022-09-12T10:45:28;99618.06;;;20.38;43.76
72802;BME280;61891;55.818;37.084;2022-09-12T10:47:59;99578.44;;;20.27;43.18
72802;BME280;61891;55.818;37.084;2022-09-12T10:50:32;99622.03;;;20.36;42.88
72802;BME280;61891;55.818;37.084;2022-09-12T10:53:20;99619.63;;;20.27;42.77
72802;BME280;61891;55.818;37.084;2022-09-12T10:56:18;99561.44;;;19.90;41.71
72802;BME280;61891;55.818;37.084;2022-09-12T11:15:35;99594.00;;;21.40;38.08
72802;BME280;61891;55.818;37.084;2022-09-12T11:21:43;99610.31;;;24.53;37.13
72802;BME280;61891;55.818;37.084;2022-09-12T11:30:11;99619.75;;;27.37;30.93
72802;BME280;61891;55.818;37.084;2022-09-12T11:32:50;99618.81;;;26.90;32.79
72802;BME280;61891;55.818;37.084;2022-09-12T11:35:25;99521.19;;;24.83;33.39
72802;BME280;61891;55.818;37.084;2022-09-12T11:40:49;99635.13;;;23.72;34.12
72802;BME280;61891;55.818;37.084;2022-09-12T11:43:42;99615.00;;;23.06;34.03
72802;BME280;61891;55.818;37.084;2022-09-12T11:54:20;99571.06;;;22.19;33.89
72802;BME280;61891;55.818;37.084;2022-09-12T11:56:52;99591.34;;;22.33;33.95
72802;BME280;61891;55.818;37.084;2022-09-12T11:59:32;99603.06;;;22.39;34.71
72802;BME280;61891;55.818;37.084;2022-09-12T12:02:00;99593.66;;;22.41;35.14
72802;BME280;61891;55.818;37.084;2022-09-12T12:04:36;99579.00;;;22.37;35.14
72802;BME280;61891;55.818;37.084;2022-09-12T12:07:06;99541.47;;;21.77;34.86
72802;BME280;61891;55.818;37.084;2022-09-12T12:09:33;99564.22;;;21.93;34.81
72802;BME280;61891;55.818;37.084;2022-09-12T12:12:00;99568.47;;;22.01;34.72
72802;BME280;61891;55.818;37.084;2022-09-12T12:14:41;99550.88;;;21.63;34.73
72802;BME280;61891;55.818;37.084;2022-09-12T12:17:15;99586.66;;;21.94;35.06
72802;BME280;61891;55.818;37.084;2022-09-12T12:19:42;99565.16;;;21.99;35.45
72802;BME280;61891;55.818;37.084;2022-09-12T12:22:18;99580.81;;;22.08;34.47
72802;BME280;61891;55.818;37.084;2022-09-12T12:38:31;99575.84;;;22.69;33.86
72802;BME280;61891;55.818;37.084;2022-09-12T12:43:52;99581.59;;;22.32;33.74
72802;BME280;61891;55.818;37.084;2022-09-12T12:46:20;99584.91;;;22.11;33.79
72802;BME280;61891;55.818;37.084;2022-09-12T12:49:04;99581.75;;;22.02;34.18
72802;BME280;61891;55.818;37.084;2022-09-12T12:51:44;99593.22;;;21.98;34.11
72802;BME280;61891;55.818;37.084;2022-09-12T12:57:26;99572.94;;;21.83;34.05
72802;BME280;61891;55.818;37.084;2022-09-12T13:00:03;99570.81;;;21.85;33.79
72802;BME280;61891;55.818;37.084;2022-09-12T13:02:35;99580.91;;;22.02;34.15
72802;BME280;61891;55.818;37.084;2022-09-12T13:05:05;99469.69;;;21.41;34.14
72802;BME280;61891;55.818;37.084;2022-09-12T13:07:40;99573.03;;;21.88;34.55
72802;BME280;61891;55.818;37.084;2022-09-12T13:10:20;99549.81;;;21.87;33.47
72802;BME280;61891;55.818;37.084;2022-09-12T13:12:48;99561.75;;;22.27;33.61
72802;BME280;61891;55.818;37.084;2022-09-12T13:15:49;99566.59;;;24.71;32.00
72802;BME280;61891;55.818;37.084;2022-09-12T13:18:22;99569.19;;;25.36;30.78
72802;BME280;61891;55.818;37.084;2022-09-12T13:20:54;99571.72;;;25.48;30.07
72802;BME280;61891;55.818;37.084;2022-09-12T13:23:25;99519.84;;;26.24;29.84
72802;BME280;61891;55.818;37.084;2022-09-12T13:25:57;99568.84;;;27.42;29.83
72802;BME280;61891;55.818;37.084;2022-09-12T13:28:24;99573.97;;;27.08;29.37
72802;BME280;61891;55.818;37.084;2022-09-12T13:33:48;99571.28;;;24.54;30.71
72802;BME280;61891;55.818;37.084;2022-09-12T13:36:37;99576.28;;;23.34;30.68
72802;BME280;61891;55.818;37.084;2022-09-12T13:45:14;99583.13;;;21.16;32.93
72802;BME280;61891;55.818;37.084;2022-09-12T13:47:49;99577.25;;;20.59;33.46
72802;BME280;61891;55.818;37.084;2022-09-12T13:50:18;99516.91;;;19.94;33.80
72802;BME280;61891;55.818;37.084;2022-09-12T13:52:56;99560.63;;;20.26;33.63
72802;BME280;61891;55.818;37.084;2022-09-12T13:55:34;99555.13;;;20.39;33.76
72802;BME280;61891;55.818;37.084;2022-09-12T13:58:03;99534.06;;;22.60;32.15
72802;BME280;61891;55.818;37.084;2022-09-12T14:00:31;99558.88;;;25.06;30.38
72802;BME280;61891;55.818;37.084;2022-09-12T14:02:59;99563.19;;;26.51;29.44
72802;BME280;61891;55.818;37.084;2022-09-12T14:05:53;99575.88;;;27.08;29.29
72802;BME280;61891;55.818;37.084;2022-09-12T14:08:20;99556.69;;;26.57;29.33
72802;BME280;61891;55.818;37.084;2022-09-12T14:10:48;99554.94;;;27.18;29.33
72802;BME280;61891;55.818;37.084;2022-09-12T14:13:25;99528.25;;;26.22;29.39
72802;BME280;61891;55.818;37.084;2022-09-12T14:15:52;99572.44;;;26.02;28.95
72802;BME280;61891;55.818;37.084;2022-09-12T14:18:28;99573.38;;;25.49;29.88
72802;BME280;61891;55.818;37.084;2022-09-12T14:20:56;99579.78;;;25.70;29.57
72802;BME280;61891;55.818;37.084;2022-09-12T14:25:52;99578.47;;;24.65;29.58
72802;BME280;61891;55.818;37.084;2022-09-12T14:28:21;99575.56;;;24.50;29.93
72802;BME280;61891;55.818;37.084;2022-09-12T14:31:05;99570.63;;;24.90;28.92
72802;BME280;61891;55.818;37.084;2022-09-12T14:33:45;99574.69;;;25.15;29.21
72802;BME280;61891;55.818;37.084;2022-09-12T14:36:30;99569.16;;;24.34;29.45
72802;BME280;61891;55.818;37.084;2022-09-12T14:39:03;99547.16;;;23.41;30.03
72802;BME280;61891;55.818;37.084;2022-09-12T14:41:38;99569.44;;;23.15;30.87
72802;BME280;61891;55.818;37.084;2022-09-12T14:44:23;99557.31;;;22.21;31.04
72802;BME280;61891;55.818;37.084;2022-09-12T14:46:51;99575.72;;;21.42;31.85
72802;BME280;61891;55.818;37.084;2022-09-12T14:49:31;99557.75;;;20.94;32.15
72802;BME280;61891;55.818;37.084;2022-09-12T14:52:05;99587.50;;;20.51;32.93
72802;BME280;61891;55.818;37.084;2022-09-12T14:57:00;99585.19;;;19.43;33.52
72802;BME280;61891;55.818;37.084;2022-09-12T15:09:48;99598.47;;;17.84;35.71
72802;BME280;61891;55.818;37.084;2022-09-12T15:12:14;99601.78;;;17.66;36.44
72802;BME280;61891;55.818;37.084;2022-09-12T15:14:40;99582.78;;;17.48;36.71
72802;BME280;61891;55.818;37.084;2022-09-12T15:17:05;99572.06;;;17.35;36.67
72802;BME280;61891;55.818;37.084;2022-09-12T15:19:31;99600.50;;;17.29;37.51
72802;BME280;61891;55.818;37.084;2022-09-12T15:21:57;99579.66;;;17.12;37.20
72802;BME280;61891;55.818;37.084;2022-09-12T15:24:23;99604.81;;;17.17;37.89
72802;BME280;61891;55.818;37.084;2022-09-12T15:26:48;99601.28;;;17.03;37.75
72802;BME280;61891;55.818;37.084;2022-09-12T15:29:15;99602.28;;;16.96;38.10
72802;BME280;61891;55.818;37.084;2022-09-12T15:31:45;99555.38;;;16.52;38.53
72802;BME280;61891;55.818;37.084;2022-09-12T15:34:11;99607.56;;;16.69;38.92
72802;BME280;61891;55.818;37.084;2022-09-12T15:36:37;99606.06;;;16.60;39.03
72802;BME280;61891;55.818;37.084;2022-09-12T15:39:03;99601.88;;;16.44;38.49
72802;BME280;61891;55.818;37.084;2022-09-12T15:41:34;99611.88;;;16.29;39.36
72802;BME280;61891;55.818;37.084;2022-09-12T15:44:11;99563.28;;;15.85;40.04
72802;BME280;61891;55.818;37.084;2022-09-12T15:46:39;99617.66;;;15.98;40.08
72802;BME280;61891;55.818;37.084;2022-09-12T15:49:05;99610.16;;;15.87;40.06
72802;BME280;61891;55.818;37.084;2022-09-12T15:51:34;99599.53;;;15.66;40.54
72802;BME280;61891;55.818;37.084;2022-09-12T15:54:03;99609.19;;;15.67;40.65
72802;BME280;61891;55.818;37.084;2022-09-12T15:56:29;99616.66;;;15.57;41.63
72802;BME280;61891;55.818;37.084;2022-09-12T15:58:55;99618.19;;;15.44;41.73
72802;BME280;61891;55.818;37.084;2022-09-12T16:01:23;99611.31;;;15.35;41.57
72802;BME280;61891;55.818;37.084;2022-09-12T16:03:49;99611.00;;;15.24;41.66
72802;BME280;61891;55.818;37.084;2022-09-12T16:06:15;99599.56;;;15.08;42.10
72802;BME280;61891;55.818;37.084;2022-09-12T16:08:40;99617.69;;;15.13;42.31
72802;BME280;61891;55.818;37.084;2022-09-12T16:11:12;99613.09;;;15.07;42.66
72802;BME280;61891;55.818;37.084;2022-09-12T16:13:40;99605.78;;;14.94;42.66
72802;BME280;61891;55.818;37.084;2022-09-12T16:16:08;99609.66;;;14.92;42.85
72802;BME280;61891;55.818;37.084;2022-09-12T16:18:34;99546.44;;;14.41;43.37
72802;BME280;61891;55.818;37.084;2022-09-12T16:20:59;99596.91;;;14.72;43.23
72802;BME280;61891;55.818;37.084;2022-09-12T16:23:25;99615.22;;;14.75;43.05
72802;BME280;61891;55.818;37.084;2022-09-12T16:26:02;99468.78;;;13.79;43.92
72802;BME280;61891;55.818;37.084;2022-09-12T16:28:29;99614.22;;;14.62;43.82
72802;BME280;61891;55.818;37.084;2022-09-12T16:31:03;99613.50;;;14.53;43.68
72802;BME280;61891;55.818;37.084;2022-09-12T16:33:29;99589.03;;;14.35;44.33
72802;BME280;61891;55.818;37.084;2022-09-12T16:36:07;99596.66;;;14.38;43.94
72802;BME280;61891;55.818;37.084;2022-09-12T16:38:34;99603.75;;;14.31;44.60
72802;BME280;61891;55.818;37.084;2022-09-12T16:41:05;99575.72;;;14.05;44.62
72802;BME280;61891;55.818;37.084;2022-09-12T16:43:33;99625.09;;;14.31;45.05
72802;BME280;61891;55.818;37.084;2022-09-12T16:46:07;99621.13;;;14.27;45.44
72802;BME280;61891;55.818;37.084;2022-09-12T16:48:33;99611.94;;;14.14;44.97
72802;BME280;61891;55.818;37.084;2022-09-12T16:51:01;99609.38;;;14.06;45.43